sensor_id;sensor_type;location;lat;lon;timestamp;P1;durP1;ratioP1;P2;durP2;ratioP2
59300;SDS011;45073;52.740;6.784;2022-09-21T00:00:47;1.63;;;0.60;;
59300;SDS011;45073;52.740;6.784;2022-09-21T00:03:13;0.70;;;0.38;;
59300;SDS011;45073;52.740;6.784;2022-09-21T00:05:39;2.35;;;0.50;;
59300;SDS011;45073;52.740;6.784;2022-09-21T00:08:05;1.38;;;0.57;;
59300;SDS011;45073;52.740;6.784;2022-09-21T00:10:32;2.53;;;0.73;;
59300;SDS011;45073;52.740;6.784;2022-09-21T00:12:58;1.58;;;0.50;;
59300;SDS011;45073;52.740;6.784;2022-09-21T00:15:27;4.65;;;0.95;;
59300;SDS011;45073;52.740;6.784;2022-09-21T00:17:53;3.33;;;0.90;;
59300;SDS011;45073;52.740;6.784;2022-09-21T00:20:21;2.72;;;0.82;;
59300;SDS011;45073;52.740;6.784;2022-09-21T00:22:47;2.03;;;0.95;;
59300;SDS011;45073;52.740;6.784;2022-09-21T00:25:13;1.73;;;0.98;;
59300;SDS011;45073;52.740;6.784;2022-09-21T00:27:39;2.65;;;1.30;;
59300;SDS011;45073;52.740;6.784;2022-09-21T00:30:05;2.65;;;1.00;;
59300;SDS011;45073;52.740;6.784;2022-09-21T00:32:32;3.58;;;1.50;;
59300;SDS011;45073;52.740;6.784;2022-09-21T00:34:59;1.58;;;0.93;;
59300;SDS011;45073;52.740;6.784;2022-09-21T00:37:27;3.38;;;1.40;;
59300;SDS011;45073;52.740;6.784;2022-09-21T00:39:53;3.50;;;1.17;;
59300;SDS011;45073;52.740;6.784;2022-09-21T00:42:23;4.45;;;1.50;;
59300;SDS011;45073;52.740;6.784;2022-09-21T00:44:54;4.80;;;1.50;;
59300;SDS011;45073;52.740;6.784;2022-09-21T00:47:21;6.40;;;1.80;;
59300;SDS011;45073;52.740;6.784;2022-09-21T00:50:20;4.75;;;1.60;;
59300;SDS011;45073;52.740;6.784;2022-09-21T00:52:49;3.92;;;1.20;;
59300;SDS011;45073;52.740;6.784;2022-09-21T00:55:28;3.35;;;1.27;;
59300;SDS011;45073;52.740;6.784;2022-09-21T00:58:01;4.15;;;1.63;;
59300;SDS011;45073;52.740;6.784;2022-09-21T01:00:33;3.15;;;1.40;;
59300;SDS011;45073;52.740;6.784;2022-09-21T01:03:00;3.17;;;1.13;;
59300;SDS011;45073;52.740;6.784;2022-09-21T01:05:27;1.60;;;0.85;;
59300;SDS011;45073;52.740;6.784;2022-09-21T01:07:53;2.92;;;1.00;;
59300;SDS011;45073;52.740;6.784;2022-09-21T01:10:21;2.13;;;0.75;;
59300;SDS011;45073;52.740;6.784;2022-09-21T01:29:31;2.45;;;0.70;;
59300;SDS011;45073;52.740;6.784;2022-09-21T01:32:00;1.42;;;0.50;;
59300;SDS011;45073;52.740;6.784;2022-09-21T01:37:25;8.93;;;0.65;;
59300;SDS011;45073;52.740;6.784;2022-09-21T01:40:21;8.57;;;1.00;;
59300;SDS011;45073;52.740;6.784;2022-09-21T01:42:51;47.47;;;2.95;;
59300;SDS011;45073;52.740;6.784;2022-09-21T01:45:20;23.75;;;1.38;;
59300;SDS011;45073;52.740;6.784;2022-09-21T01:47:52;3.72;;;0.50;;
59300;SDS011;45073;52.740;6.784;2022-09-21T01:50:19;1.33;;;0.60;;
59300;SDS011;45073;52.740;6.784;2022-09-21T01:52:48;1.17;;;0.60;;
59300;SDS011;45073;52.740;6.784;2022-09-21T01:55:23;1.05;;;0.57;;
59300;SDS011;45073;52.740;6.784;2022-09-21T02:00:31;1.00;;;0.50;;
59300;SDS011;45073;52.740;6.784;2022-09-21T02:03:02;4.20;;;0.80;;
59300;SDS011;45073;52.740;6.784;2022-09-21T02:05:34;0.40;;;0.20;;
59300;SDS011;45073;52.740;6.784;2022-09-21T02:08:00;19.85;;;1.42;;
59300;SDS011;45073;52.740;6.784;2022-09-21T02:10:34;13.98;;;1.05;;
59300;SDS011;45073;52.740;6.784;2022-09-21T02:13:04;5.25;;;0.43;;
59300;SDS011;45073;52.740;6.784;2022-09-21T02:21:40;0.10;;;0.10;;
59300;SDS011;45073;52.740;6.784;2022-09-21T02:24:24;0.30;;;0.30;;
59300;SDS011;45073;52.740;6.784;2022-09-21T02:27:01;48.50;;;3.05;;
59300;SDS011;45073;52.740;6.784;2022-09-21T02:32:46;23.98;;;2.92;;
59300;SDS011;45073;52.740;6.784;2022-09-21T02:38:13;5.07;;;0.65;;
59300;SDS011;45073;52.740;6.784;2022-09-21T02:43:58;3.60;;;0.30;;
59300;SDS011;45073;52.740;6.784;2022-09-21T02:49:15;0.80;;;0.50;;
59300;SDS011;45073;52.740;6.784;2022-09-21T02:51:52;0.55;;;0.50;;
59300;SDS011;45073;52.740;6.784;2022-09-21T02:54:23;82.53;;;4.20;;
59300;SDS011;45073;52.740;6.784;2022-09-21T02:56:52;0.70;;;0.55;;
59300;SDS011;45073;52.740;6.784;2022-09-21T02:59:19;0.35;;;0.28;;
59300;SDS011;45073;52.740;6.784;2022-09-21T03:01:47;0.50;;;0.40;;
59300;SDS011;45073;52.740;6.784;2022-09-21T03:04:13;1.15;;;0.50;;
59300;SDS011;45073;52.740;6.784;2022-09-21T03:06:40;1.88;;;0.70;;
59300;SDS011;45073;52.740;6.784;2022-09-21T03:09:06;0.40;;;0.40;;
59300;SDS011;45073;52.740;6.784;2022-09-21T03:11:32;0.75;;;0.60;;
59300;SDS011;45073;52.740;6.784;2022-09-21T03:14:00;0.50;;;0.50;;
59300;SDS011;45073;52.740;6.784;2022-09-21T03:16:26;0.73;;;0.45;;
59300;SDS011;45073;52.740;6.784;2022-09-21T03:18:53;1.23;;;0.30;;
59300;SDS011;45073;52.740;6.784;2022-09-21T03:21:18;0.85;;;0.52;;
59300;SDS011;45073;52.740;6.784;2022-09-21T03:23:44;2.15;;;0.73;;
59300;SDS011;45073;52.740;6.784;2022-09-21T03:26:09;2.42;;;0.80;;
59300;SDS011;45073;52.740;6.784;2022-09-21T03:28:35;0.98;;;0.50;;
59300;SDS011;45073;52.740;6.784;2022-09-21T03:31:01;1.00;;;0.50;;
59300;SDS011;45073;52.740;6.784;2022-09-21T03:33:26;1.60;;;0.90;;
59300;SDS011;45073;52.740;6.784;2022-09-21T03:35:52;1.80;;;0.80;;
59300;SDS011;45073;52.740;6.784;2022-09-21T03:38:18;2.03;;;0.77;;
59300;SDS011;45073;52.740;6.784;2022-09-21T03:40:48;2.88;;;0.95;;
59300;SDS011;45073;52.740;6.784;2022-09-21T03:43:15;2.47;;;1.00;;
59300;SDS011;45073;52.740;6.784;2022-09-21T03:45:41;2.65;;;0.98;;
59300;SDS011;45073;52.740;6.784;2022-09-21T03:48:08;3.67;;;1.13;;
59300;SDS011;45073;52.740;6.784;2022-09-21T03:50:35;5.68;;;1.10;;
59300;SDS011;45073;52.740;6.784;2022-09-21T03:53:01;6.45;;;1.50;;
59300;SDS011;45073;52.740;6.784;2022-09-21T03:55:27;1.17;;;0.50;;
59300;SDS011;45073;52.740;6.784;2022-09-21T03:57:54;10.43;;;1.58;;
59300;SDS011;45073;52.740;6.784;2022-09-21T04:00:20;2.97;;;1.05;;
59300;SDS011;45073;52.740;6.784;2022-09-21T04:02:45;14.00;;;1.67;;
59300;SDS011;45073;52.740;6.784;2022-09-21T04:05:13;4.80;;;1.10;;
59300;SDS011;45073;52.740;6.784;2022-09-21T04:07:39;2.65;;;0.95;;
59300;SDS011;45073;52.740;6.784;2022-09-21T04:10:06;2.85;;;1.00;;
59300;SDS011;45073;52.740;6.784;2022-09-21T04:12:36;7.15;;;1.10;;
59300;SDS011;45073;52.740;6.784;2022-09-21T04:15:03;20.40;;;2.38;;
59300;SDS011;45073;52.740;6.784;2022-09-21T04:17:31;37.20;;;1.85;;
59300;SDS011;45073;52.740;6.784;2022-09-21T04:19:58;8.82;;;0.80;;
59300;SDS011;45073;52.740;6.784;2022-09-21T04:22:24;68.43;;;3.47;;
59300;SDS011;45073;52.740;6.784;2022-09-21T04:24:49;10.82;;;0.90;;
59300;SDS011;45073;52.740;6.784;2022-09-21T04:27:15;7.05;;;1.00;;
59300;SDS011;45073;52.740;6.784;2022-09-21T04:29:42;27.20;;;1.85;;
59300;SDS011;45073;52.740;6.784;2022-09-21T04:32:08;46.25;;;2.55;;
59300;SDS011;45073;52.740;6.784;2022-09-21T04:34:34;15.10;;;1.58;;
59300;SDS011;45073;52.740;6.784;2022-09-21T04:37:01;4.07;;;0.50;;
59300;SDS011;45073;52.740;6.784;2022-09-21T04:39:26;5.47;;;0.65;;
59300;SDS011;45073;52.740;6.784;2022-09-21T04:41:52;1.77;;;0.70;;
59300;SDS011;45073;52.740;6.784;2022-09-21T04:44:18;0.95;;;0.50;;
59300;SDS011;45073;52.740;6.784;2022-09-21T04:46:43;1.10;;;0.50;;
59300;SDS011;45073;52.740;6.784;2022-09-21T04:49:09;2.08;;;0.80;;
59300;SDS011;45073;52.740;6.784;2022-09-21T04:51:35;10.25;;;1.10;;
59300;SDS011;45073;52.740;6.784;2022-09-21T04:54:01;1.65;;;0.45;;
59300;SDS011;45073;52.740;6.784;2022-09-21T04:56:27;1.63;;;0.63;;
59300;SDS011;45073;52.740;6.784;2022-09-21T04:58:52;3.13;;;0.98;;
59300;SDS011;45073;52.740;6.784;2022-09-21T05:01:18;4.93;;;1.05;;
59300;SDS011;45073;52.740;6.784;2022-09-21T05:03:43;3.13;;;0.93;;
59300;SDS011;45073;52.740;6.784;2022-09-21T05:06:09;5.20;;;1.30;;
59300;SDS011;45073;52.740;6.784;2022-09-21T05:08:37;2.50;;;1.00;;
59300;SDS011;45073;52.740;6.784;2022-09-21T05:11:21;3.88;;;1.38;;
59300;SDS011;45073;52.740;6.784;2022-09-21T05:13:48;3.00;;;1.20;;
59300;SDS011;45073;52.740;6.784;2022-09-21T05:16:14;5.13;;;1.25;;
59300;SDS011;45073;52.740;6.784;2022-09-21T05:18:40;5.35;;;1.20;;
59300;SDS011;45073;52.740;6.784;2022-09-21T05:21:06;3.90;;;1.20;;
59300;SDS011;45073;52.740;6.784;2022-09-21T05:23:33;3.35;;;1.15;;
59300;SDS011;45073;52.740;6.784;2022-09-21T05:25:58;3.97;;;1.13;;
59300;SDS011;45073;52.740;6.784;2022-09-21T05:28:25;5.43;;;1.85;;
59300;SDS011;45073;52.740;6.784;2022-09-21T05:30:58;5.47;;;1.48;;
59300;SDS011;45073;52.740;6.784;2022-09-21T05:33:27;2.92;;;1.15;;
59300;SDS011;45073;52.740;6.784;2022-09-21T05:36:01;3.63;;;1.08;;
59300;SDS011;45073;52.740;6.784;2022-09-21T05:38:50;4.30;;;1.17;;
59300;SDS011;45073;52.740;6.784;2022-09-21T05:41:16;7.80;;;2.25;;
59300;SDS011;45073;52.740;6.784;2022-09-21T05:43:41;5.85;;;1.58;;
59300;SDS011;45073;52.740;6.784;2022-09-21T05:46:13;3.30;;;1.33;;
59300;SDS011;45073;52.740;6.784;2022-09-21T05:48:59;3.30;;;1.20;;
59300;SDS011;45073;52.740;6.784;2022-09-21T05:51:37;2.17;;;0.93;;
59300;SDS011;45073;52.740;6.784;2022-09-21T05:54:25;3.22;;;1.08;;
59300;SDS011;45073;52.740;6.784;2022-09-21T06:00:12;4.82;;;1.35;;
59300;SDS011;45073;52.740;6.784;2022-09-21T06:05:21;3.63;;;0.90;;
59300;SDS011;45073;52.740;6.784;2022-09-21T06:07:47;66.65;;;4.32;;
59300;SDS011;45073;52.740;6.784;2022-09-21T06:10:13;9.20;;;1.13;;
59300;SDS011;45073;52.740;6.784;2022-09-21T06:12:39;3.45;;;0.70;;
59300;SDS011;45073;52.740;6.784;2022-09-21T06:15:06;5.30;;;0.98;;
59300;SDS011;45073;52.740;6.784;2022-09-21T06:17:35;7.13;;;1.23;;
59300;SDS011;45073;52.740;6.784;2022-09-21T06:20:00;7.00;;;1.35;;
59300;SDS011;45073;52.740;6.784;2022-09-21T06:22:27;4.65;;;1.30;;
59300;SDS011;45073;52.740;6.784;2022-09-21T06:24:52;4.07;;;1.40;;
59300;SDS011;45073;52.740;6.784;2022-09-21T06:27:18;6.18;;;1.73;;
59300;SDS011;45073;52.740;6.784;2022-09-21T06:29:44;4.25;;;1.40;;
59300;SDS011;45073;52.740;6.784;2022-09-21T06:32:09;5.43;;;1.83;;
59300;SDS011;45073;52.740;6.784;2022-09-21T06:34:35;3.33;;;1.23;;
59300;SDS011;45073;52.740;6.784;2022-09-21T06:37:02;5.22;;;2.10;;
59300;SDS011;45073;52.740;6.784;2022-09-21T06:39:28;4.63;;;1.90;;
59300;SDS011;45073;52.740;6.784;2022-09-21T06:41:53;5.18;;;1.65;;
59300;SDS011;45073;52.740;6.784;2022-09-21T06:44:20;5.03;;;1.95;;
59300;SDS011;45073;52.740;6.784;2022-09-21T06:46:45;2.83;;;1.50;;
59300;SDS011;45073;52.740;6.784;2022-09-21T06:49:11;5.13;;;2.00;;
59300;SDS011;45073;52.740;6.784;2022-09-21T06:51:36;5.53;;;1.85;;
59300;SDS011;45073;52.740;6.784;2022-09-21T06:54:02;5.93;;;1.80;;
59300;SDS011;45073;52.740;6.784;2022-09-21T06:56:28;5.30;;;2.10;;
59300;SDS011;45073;52.740;6.784;2022-09-21T06:58:54;6.15;;;2.67;;
59300;SDS011;45073;52.740;6.784;2022-09-21T07:01:19;5.20;;;2.53;;
59300;SDS011;45073;52.740;6.784;2022-09-21T07:03:47;5.45;;;2.42;;
59300;SDS011;45073;52.740;6.784;2022-09-21T07:06:15;5.72;;;2.40;;
59300;SDS011;45073;52.740;6.784;2022-09-21T07:08:41;6.53;;;2.42;;
59300;SDS011;45073;52.740;6.784;2022-09-21T07:11:08;5.38;;;1.88;;
59300;SDS011;45073;52.740;6.784;2022-09-21T07:13:33;5.68;;;2.00;;
59300;SDS011;45073;52.740;6.784;2022-09-21T07:16:03;4.82;;;2.13;;
59300;SDS011;45073;52.740;6.784;2022-09-21T07:18:31;6.00;;;2.45;;
59300;SDS011;45073;52.740;6.784;2022-09-21T07:21:01;5.55;;;2.33;;
59300;SDS011;45073;52.740;6.784;2022-09-21T07:23:30;5.72;;;2.65;;
59300;SDS011;45073;52.740;6.784;2022-09-21T07:26:00;6.45;;;2.53;;
59300;SDS011;45073;52.740;6.784;2022-09-21T07:28:27;6.82;;;2.83;;
59300;SDS011;45073;52.740;6.784;2022-09-21T07:30:52;7.30;;;2.80;;
59300;SDS011;45073;52.740;6.784;2022-09-21T07:33:18;6.22;;;2.67;;
59300;SDS011;45073;52.740;6.784;2022-09-21T07:35:50;9.57;;;3.33;;
59300;SDS011;45073;52.740;6.784;2022-09-21T07:38:22;8.35;;;2.97;;
59300;SDS011;45073;52.740;6.784;2022-09-21T07:40:48;8.50;;;3.35;;
59300;SDS011;45073;52.740;6.784;2022-09-21T07:43:14;8.55;;;3.42;;
59300;SDS011;45073;52.740;6.784;2022-09-21T07:45:40;7.95;;;4.05;;
59300;SDS011;45073;52.740;6.784;2022-09-21T07:48:05;8.77;;;3.58;;
59300;SDS011;45073;52.740;6.784;2022-09-21T07:50:33;10.57;;;3.65;;
59300;SDS011;45073;52.740;6.784;2022-09-21T07:52:59;9.98;;;3.67;;
59300;SDS011;45073;52.740;6.784;2022-09-21T07:55:26;10.85;;;3.88;;
59300;SDS011;45073;52.740;6.784;2022-09-21T07:57:51;7.72;;;3.90;;
59300;SDS011;45073;52.740;6.784;2022-09-21T08:00:36;9.65;;;3.72;;
59300;SDS011;45073;52.740;6.784;2022-09-21T08:03:02;9.30;;;4.40;;
59300;SDS011;45073;52.740;6.784;2022-09-21T08:05:28;11.15;;;4.25;;
59300;SDS011;45073;52.740;6.784;2022-09-21T08:07:55;9.98;;;4.50;;
59300;SDS011;45073;52.740;6.784;2022-09-21T08:10:21;8.70;;;4.30;;
59300;SDS011;45073;52.740;6.784;2022-09-21T08:12:48;12.50;;;4.55;;
59300;SDS011;45073;52.740;6.784;2022-09-21T08:15:14;12.07;;;3.78;;
59300;SDS011;45073;52.740;6.784;2022-09-21T08:17:39;10.05;;;3.83;;
59300;SDS011;45073;52.740;6.784;2022-09-21T08:20:05;9.73;;;4.35;;
59300;SDS011;45073;52.740;6.784;2022-09-21T08:22:31;10.02;;;3.78;;
59300;SDS011;45073;52.740;6.784;2022-09-21T08:24:56;13.48;;;4.25;;
59300;SDS011;45073;52.740;6.784;2022-09-21T08:27:22;12.65;;;4.35;;
59300;SDS011;45073;52.740;6.784;2022-09-21T08:29:50;11.63;;;4.43;;
59300;SDS011;45073;52.740;6.784;2022-09-21T08:32:16;16.38;;;5.40;;
59300;SDS011;45073;52.740;6.784;2022-09-21T08:34:41;8.95;;;3.67;;
59300;SDS011;45073;52.740;6.784;2022-09-21T08:37:07;10.30;;;3.63;;
59300;SDS011;45073;52.740;6.784;2022-09-21T08:39:33;8.73;;;3.60;;
59300;SDS011;45073;52.740;6.784;2022-09-21T08:42:03;11.73;;;3.70;;
59300;SDS011;45073;52.740;6.784;2022-09-21T08:44:52;9.45;;;3.58;;
59300;SDS011;45073;52.740;6.784;2022-09-21T08:47:25;11.15;;;3.05;;
59300;SDS011;45073;52.740;6.784;2022-09-21T08:49:59;12.25;;;3.20;;
59300;SDS011;45073;52.740;6.784;2022-09-21T08:52:27;10.45;;;3.28;;
59300;SDS011;45073;52.740;6.784;2022-09-21T08:55:02;10.98;;;3.25;;
59300;SDS011;45073;52.740;6.784;2022-09-21T08:57:33;11.68;;;3.25;;
59300;SDS011;45073;52.740;6.784;2022-09-21T09:00:00;12.02;;;2.80;;
59300;SDS011;45073;52.740;6.784;2022-09-21T09:05:14;9.25;;;2.00;;
59300;SDS011;45073;52.740;6.784;2022-09-21T09:11:13;8.00;;;2.10;;
59300;SDS011;45073;52.740;6.784;2022-09-21T09:14:03;7.97;;;1.80;;
59300;SDS011;45073;52.740;6.784;2022-09-21T09:20:02;10.40;;;2.65;;
59300;SDS011;45073;52.740;6.784;2022-09-21T09:22:36;8.93;;;2.03;;
59300;SDS011;45073;52.740;6.784;2022-09-21T09:25:12;9.32;;;2.50;;
59300;SDS011;45073;52.740;6.784;2022-09-21T09:27:43;10.73;;;1.80;;
59300;SDS011;45073;52.740;6.784;2022-09-21T09:30:23;10.73;;;1.80;;
59300;SDS011;45073;52.740;6.784;2022-09-21T09:32:58;10.65;;;1.83;;
59300;SDS011;45073;52.740;6.784;2022-09-21T09:35:46;12.45;;;2.72;;
59300;SDS011;45073;52.740;6.784;2022-09-21T09:38:18;12.63;;;2.17;;
59300;SDS011;45073;52.740;6.784;2022-09-21T09:43:56;10.20;;;1.83;;
59300;SDS011;45073;52.740;6.784;2022-09-21T09:46:36;6.93;;;1.50;;
59300;SDS011;45073;52.740;6.784;2022-09-21T09:49:25;11.40;;;2.58;;
59300;SDS011;45073;52.740;6.784;2022-09-21T09:51:57;11.75;;;2.30;;
59300;SDS011;45073;52.740;6.784;2022-09-21T09:54:25;7.18;;;1.50;;
59300;SDS011;45073;52.740;6.784;2022-09-21T09:56:53;9.38;;;1.55;;
59300;SDS011;45073;52.740;6.784;2022-09-21T10:02:05;11.30;;;2.00;;
59300;SDS011;45073;52.740;6.784;2022-09-21T10:04:53;11.48;;;2.03;;
59300;SDS011;45073;52.740;6.784;2022-09-21T10:07:18;8.82;;;1.52;;
59300;SDS011;45073;52.740;6.784;2022-09-21T10:09:44;10.00;;;1.33;;
59300;SDS011;45073;52.740;6.784;2022-09-21T10:12:18;7.20;;;1.40;;
59300;SDS011;45073;52.740;6.784;2022-09-21T10:14:49;9.13;;;1.48;;
59300;SDS011;45073;52.740;6.784;2022-09-21T10:17:16;7.32;;;1.45;;
59300;SDS011;45073;52.740;6.784;2022-09-21T10:19:43;8.93;;;1.92;;
59300;SDS011;45073;52.740;6.784;2022-09-21T10:22:18;9.20;;;1.80;;
59300;SDS011;45073;52.740;6.784;2022-09-21T10:24:45;8.82;;;1.80;;
59300;SDS011;45073;52.740;6.784;2022-09-21T10:27:15;7.07;;;1.60;;
59300;SDS011;45073;52.740;6.784;2022-09-21T10:29:51;8.45;;;1.80;;
59300;SDS011;45073;52.740;6.784;2022-09-21T10:35:00;8.15;;;1.70;;
59300;SDS011;45073;52.740;6.784;2022-09-21T10:39:54;10.23;;;1.90;;
59300;SDS011;45073;52.740;6.784;2022-09-21T10:42:21;9.77;;;2.00;;
59300;SDS011;45073;52.740;6.784;2022-09-21T10:44:51;8.63;;;2.15;;
59300;SDS011;45073;52.740;6.784;2022-09-21T10:50:57;10.75;;;1.98;;
59300;SDS011;45073;52.740;6.784;2022-09-21T10:53:30;6.90;;;1.70;;
59300;SDS011;45073;52.740;6.784;2022-09-21T11:01:45;8.17;;;1.40;;
59300;SDS011;45073;52.740;6.784;2022-09-21T11:12:54;8.57;;;1.63;;
59300;SDS011;45073;52.740;6.784;2022-09-21T11:18:29;8.02;;;1.63;;
59300;SDS011;45073;52.740;6.784;2022-09-21T11:21:14;9.38;;;2.08;;
59300;SDS011;45073;52.740;6.784;2022-09-21T11:26:12;9.30;;;1.77;;
59300;SDS011;45073;52.740;6.784;2022-09-21T11:28:44;8.45;;;2.05;;
59300;SDS011;45073;52.740;6.784;2022-09-21T11:34:04;7.05;;;1.52;;
59300;SDS011;45073;52.740;6.784;2022-09-21T11:45:12;7.97;;;1.83;;
59300;SDS011;45073;52.740;6.784;2022-09-21T11:48:05;8.50;;;1.50;;
59300;SDS011;45073;52.740;6.784;2022-09-21T11:53:27;5.22;;;1.23;;
59300;SDS011;45073;52.740;6.784;2022-09-21T12:02:25;8.05;;;1.55;;
59300;SDS011;45073;52.740;6.784;2022-09-21T12:05:06;5.18;;;1.30;;
59300;SDS011;45073;52.740;6.784;2022-09-21T12:08:03;6.25;;;1.30;;
59300;SDS011;45073;52.740;6.784;2022-09-21T12:10:44;4.70;;;1.08;;
59300;SDS011;45073;52.740;6.784;2022-09-21T12:22:10;6.22;;;1.25;;
59300;SDS011;45073;52.740;6.784;2022-09-21T12:27:38;6.45;;;1.25;;
59300;SDS011;45073;52.740;6.784;2022-09-21T12:30:11;6.72;;;1.38;;
59300;SDS011;45073;52.740;6.784;2022-09-21T12:32:49;6.95;;;1.45;;
59300;SDS011;45073;52.740;6.784;2022-09-21T12:35:29;11.02;;;1.63;;
59300;SDS011;45073;52.740;6.784;2022-09-21T12:46:37;5.50;;;1.77;;
59300;SDS011;45073;52.740;6.784;2022-09-21T12:49:11;8.45;;;1.40;;
59300;SDS011;45073;52.740;6.784;2022-09-21T12:51:47;6.80;;;1.20;;
59300;SDS011;45073;52.740;6.784;2022-09-21T12:54:25;6.25;;;1.35;;
59300;SDS011;45073;52.740;6.784;2022-09-21T12:57:09;9.13;;;1.60;;
59300;SDS011;45073;52.740;6.784;2022-09-21T12:59:54;8.07;;;1.65;;
59300;SDS011;45073;52.740;6.784;2022-09-21T13:02:33;8.85;;;1.60;;
59300;SDS011;45073;52.740;6.784;2022-09-21T13:07:47;8.75;;;1.77;;
59300;SDS011;45073;52.740;6.784;2022-09-21T13:10:29;6.45;;;1.27;;
59300;SDS011;45073;52.740;6.784;2022-09-21T13:13:03;5.97;;;1.15;;
59300;SDS011;45073;52.740;6.784;2022-09-21T13:15:40;7.32;;;1.38;;
59300;SDS011;45073;52.740;6.784;2022-09-21T13:18:15;6.45;;;1.30;;
59300;SDS011;45073;52.740;6.784;2022-09-21T13:20:45;7.95;;;1.27;;
59300;SDS011;45073;52.740;6.784;2022-09-21T13:23:15;7.25;;;1.30;;
59300;SDS011;45073;52.740;6.784;2022-09-21T13:25:48;5.70;;;1.30;;
59300;SDS011;45073;52.740;6.784;2022-09-21T13:28:22;4.82;;;1.00;;
59300;SDS011;45073;52.740;6.784;2022-09-21T13:36:41;4.78;;;0.90;;
59300;SDS011;45073;52.740;6.784;2022-09-21T13:41:33;6.85;;;1.05;;
59300;SDS011;45073;52.740;6.784;2022-09-21T13:47:13;6.22;;;1.20;;
59300;SDS011;45073;52.740;6.784;2022-09-21T13:49:51;5.95;;;1.30;;
59300;SDS011;45073;52.740;6.784;2022-09-21T13:52:37;6.30;;;1.20;;
59300;SDS011;45073;52.740;6.784;2022-09-21T13:55:51;7.60;;;1.40;;
59300;SDS011;45073;52.740;6.784;2022-09-21T13:57:59;6.25;;;1.17;;
59300;SDS011;45073;52.740;6.784;2022-09-21T14:03:24;5.50;;;1.02;;
59300;SDS011;45073;52.740;6.784;2022-09-21T14:08:32;5.80;;;0.93;;
59300;SDS011;45073;52.740;6.784;2022-09-21T14:11:05;7.40;;;1.20;;
59300;SDS011;45073;52.740;6.784;2022-09-21T14:13:37;6.45;;;1.35;;
59300;SDS011;45073;52.740;6.784;2022-09-21T14:19:02;4.93;;;1.08;;
59300;SDS011;45073;52.740;6.784;2022-09-21T14:24:38;5.10;;;1.15;;
59300;SDS011;45073;52.740;6.784;2022-09-21T14:29:52;4.97;;;1.17;;
59300;SDS011;45073;52.740;6.784;2022-09-21T14:32:24;5.28;;;1.10;;
59300;SDS011;45073;52.740;6.784;2022-09-21T14:34:54;5.75;;;1.10;;
59300;SDS011;45073;52.740;6.784;2022-09-21T14:40:17;5.03;;;1.10;;
59300;SDS011;45073;52.740;6.784;2022-09-21T14:42:49;6.80;;;1.35;;
59300;SDS011;45073;52.740;6.784;2022-09-21T14:45:18;6.53;;;1.05;;
59300;SDS011;45073;52.740;6.784;2022-09-21T14:47:54;6.20;;;1.20;;
59300;SDS011;45073;52.740;6.784;2022-09-21T14:50:29;7.18;;;1.27;;
59300;SDS011;45073;52.740;6.784;2022-09-21T14:55:40;6.22;;;1.20;;
59300;SDS011;45073;52.740;6.784;2022-09-21T15:00:45;7.10;;;2.10;;
59300;SDS011;45073;52.740;6.784;2022-09-21T15:06:13;5.47;;;1.08;;
59300;SDS011;45073;52.740;6.784;2022-09-21T15:15:46;5.32;;;1.23;;
59300;SDS011;45073;52.740;6.784;2022-09-21T15:18:41;6.35;;;1.17;;
59300;SDS011;45073;52.740;6.784;2022-09-21T15:21:18;10.50;;;2.63;;
59300;SDS011;45073;52.740;6.784;2022-09-21T15:23:48;5.05;;;1.10;;
59300;SDS011;45073;52.740;6.784;2022-09-21T15:26:16;4.95;;;1.10;;
59300;SDS011;45073;52.740;6.784;2022-09-21T15:31:16;8.52;;;1.40;;
59300;SDS011;45073;52.740;6.784;2022-09-21T15:33:43;4.20;;;0.85;;
59300;SDS011;45073;52.740;6.784;2022-09-21T15:36:12;5.25;;;1.00;;
59300;SDS011;45073;52.740;6.784;2022-09-21T15:38:46;6.22;;;1.23;;
59300;SDS011;45073;52.740;6.784;2022-09-21T15:41:18;5.50;;;0.90;;
59300;SDS011;45073;52.740;6.784;2022-09-21T15:44:04;6.35;;;1.25;;
59300;SDS011;45073;52.740;6.784;2022-09-21T15:46:47;8.38;;;1.38;;
59300;SDS011;45073;52.740;6.784;2022-09-21T15:49:16;7.05;;;1.30;;
59300;SDS011;45073;52.740;6.784;2022-09-21T15:51:47;5.53;;;1.00;;
59300;SDS011;45073;52.740;6.784;2022-09-21T15:56:50;5.68;;;1.17;;
59300;SDS011;45073;52.740;6.784;2022-09-21T15:59:18;5.00;;;1.10;;
59300;SDS011;45073;52.740;6.784;2022-09-21T16:01:47;5.13;;;1.00;;
59300;SDS011;45073;52.740;6.784;2022-09-21T16:04:21;4.68;;;0.98;;
59300;SDS011;45073;52.740;6.784;2022-09-21T16:09:50;3.22;;;0.80;;
59300;SDS011;45073;52.740;6.784;2022-09-21T16:15:23;6.35;;;1.08;;
59300;SDS011;45073;52.740;6.784;2022-09-21T16:18:04;7.25;;;1.10;;
59300;SDS011;45073;52.740;6.784;2022-09-21T16:23:14;5.60;;;1.20;;
59300;SDS011;45073;52.740;6.784;2022-09-21T16:25:51;4.03;;;0.88;;
59300;SDS011;45073;52.740;6.784;2022-09-21T16:30:46;4.95;;;1.00;;
59300;SDS011;45073;52.740;6.784;2022-09-21T16:38:45;5.00;;;1.00;;
59300;SDS011;45073;52.740;6.784;2022-09-21T16:41:23;7.07;;;1.00;;
59300;SDS011;45073;52.740;6.784;2022-09-21T16:43:57;4.85;;;1.10;;
59300;SDS011;45073;52.740;6.784;2022-09-21T16:46:24;4.15;;;0.90;;
59300;SDS011;45073;52.740;6.784;2022-09-21T16:48:51;5.70;;;1.10;;
59300;SDS011;45073;52.740;6.784;2022-09-21T16:51:19;6.07;;;1.08;;
59300;SDS011;45073;52.740;6.784;2022-09-21T16:53:48;3.55;;;0.82;;
59300;SDS011;45073;52.740;6.784;2022-09-21T16:56:14;6.32;;;1.05;;
59300;SDS011;45073;52.740;6.784;2022-09-21T16:58:43;4.50;;;1.00;;
59300;SDS011;45073;52.740;6.784;2022-09-21T17:01:16;6.32;;;1.13;;
59300;SDS011;45073;52.740;6.784;2022-09-21T17:03:44;4.38;;;0.90;;
59300;SDS011;45073;52.740;6.784;2022-09-21T17:06:15;8.77;;;2.75;;
59300;SDS011;45073;52.740;6.784;2022-09-21T17:08:43;10.60;;;6.10;;
59300;SDS011;45073;52.740;6.784;2022-09-21T17:11:12;6.55;;;1.50;;
59300;SDS011;45073;52.740;6.784;2022-09-21T17:13:43;5.47;;;1.20;;
59300;SDS011;45073;52.740;6.784;2022-09-21T17:16:13;6.75;;;1.60;;
59300;SDS011;45073;52.740;6.784;2022-09-21T17:18:42;4.80;;;1.65;;
59300;SDS011;45073;52.740;6.784;2022-09-21T17:21:08;6.75;;;2.13;;
59300;SDS011;45073;52.740;6.784;2022-09-21T17:23:34;8.30;;;3.25;;
59300;SDS011;45073;52.740;6.784;2022-09-21T17:26:00;5.75;;;1.33;;
59300;SDS011;45073;52.740;6.784;2022-09-21T17:28:25;5.38;;;1.10;;
59300;SDS011;45073;52.740;6.784;2022-09-21T17:30:52;6.97;;;1.20;;
59300;SDS011;45073;52.740;6.784;2022-09-21T17:33:18;6.18;;;1.13;;
59300;SDS011;45073;52.740;6.784;2022-09-21T17:35:46;4.18;;;0.85;;
59300;SDS011;45073;52.740;6.784;2022-09-21T17:38:14;4.22;;;0.90;;
59300;SDS011;45073;52.740;6.784;2022-09-21T17:40:40;5.15;;;1.10;;
59300;SDS011;45073;52.740;6.784;2022-09-21T17:45:43;4.70;;;1.10;;
59300;SDS011;45073;52.740;6.784;2022-09-21T17:48:33;5.13;;;1.00;;
59300;SDS011;45073;52.740;6.784;2022-09-21T17:51:00;3.25;;;0.88;;
59300;SDS011;45073;52.740;6.784;2022-09-21T17:53:26;4.50;;;1.10;;
59300;SDS011;45073;52.740;6.784;2022-09-21T17:55:58;1.38;;;0.40;;
59300;SDS011;45073;52.740;6.784;2022-09-21T17:58:55;5.65;;;1.20;;
59300;SDS011;45073;52.740;6.784;2022-09-21T18:01:34;4.82;;;1.38;;
59300;SDS011;45073;52.740;6.784;2022-09-21T18:04:04;3.70;;;0.90;;
59300;SDS011;45073;52.740;6.784;2022-09-21T18:06:31;6.35;;;1.27;;
59300;SDS011;45073;52.740;6.784;2022-09-21T18:08:58;6.75;;;1.95;;
59300;SDS011;45073;52.740;6.784;2022-09-21T18:20:21;7.85;;;2.38;;
59300;SDS011;45073;52.740;6.784;2022-09-21T18:23:11;5.93;;;1.52;;
59300;SDS011;45073;52.740;6.784;2022-09-21T18:25:43;7.45;;;1.38;;
59300;SDS011;45073;52.740;6.784;2022-09-21T18:30:49;5.38;;;1.30;;
59300;SDS011;45073;52.740;6.784;2022-09-21T18:33:23;6.32;;;1.20;;
59300;SDS011;45073;52.740;6.784;2022-09-21T18:36:11;4.82;;;1.15;;
59300;SDS011;45073;52.740;6.784;2022-09-21T18:48:29;6.60;;;1.48;;